createdAt,value
2018-09-05T00:00:36.382Z,7.37
2018-09-05T00:03:05.078Z,7.77
2018-09-05T00:05:33.673Z,7.00
2018-09-05T00:08:02.415Z,6.83
2018-09-05T00:10:31.680Z,6.57
2018-09-05T00:13:01.220Z,6.30
2018-09-05T00:15:29.796Z,7.00
2018-09-05T00:17:58.364Z,7.00
2018-09-05T00:20:26.894Z,7.70
2018-09-05T00:22:55.407Z,7.40
2018-09-05T00:25:23.871Z,7.17
2018-09-05T00:27:52.350Z,7.20
2018-09-05T00:30:20.963Z,6.73
2018-09-05T00:32:49.528Z,6.73
2018-09-05T00:35:18.182Z,7.00
2018-09-05T00:37:46.873Z,7.03
2018-09-05T00:40:15.521Z,7.73
2018-09-05T00:42:44.039Z,7.67
2018-09-05T00:45:12.553Z,6.57
2018-09-05T00:47:41.138Z,6.83
2018-09-05T00:50:09.821Z,7.00
2018-09-05T00:52:38.541Z,7.03
2018-09-05T00:55:07.168Z,6.43
2018-09-05T00:57:35.638Z,6.77
2018-09-05T01:00:04.120Z,6.87
2018-09-05T01:02:32.626Z,8.93
2018-09-05T01:05:01.155Z,6.90
2018-09-05T01:07:29.806Z,7.23
2018-09-05T01:09:58.502Z,9.83
2018-09-05T01:12:27.410Z,6.73
2018-09-05T01:14:56.071Z,6.53
2018-09-05T01:17:24.524Z,6.77
2018-09-05T01:19:52.979Z,7.40
2018-09-05T01:22:21.457Z,7.90
2018-09-05T01:24:50.025Z,7.63
2018-09-05T01:27:18.557Z,7.47
2018-09-05T01:29:47.094Z,7.60
2018-09-05T01:32:15.629Z,7.23
2018-09-05T01:34:44.102Z,7.57
2018-09-05T01:37:12.762Z,7.37
2018-09-05T01:39:41.447Z,8.17
2018-09-05T01:42:10.903Z,8.17
2018-09-05T01:44:40.099Z,8.60
2018-09-05T01:47:08.800Z,7.50
2018-09-05T01:49:37.468Z,8.23
2018-09-05T01:52:06.012Z,7.33
2018-09-05T01:54:34.491Z,6.73
2018-09-05T01:57:02.960Z,7.07
2018-09-05T01:59:31.677Z,7.67
2018-09-05T02:02:00.497Z,7.80
2018-09-05T02:04:29.178Z,7.73
2018-09-05T02:06:57.890Z,7.33
2018-09-05T02:09:26.495Z,6.93
2018-09-05T02:11:54.968Z,6.93
2018-09-05T02:14:23.562Z,6.77
2018-09-05T02:16:52.043Z,7.47
2018-09-05T02:19:20.688Z,7.67
2018-09-05T02:21:49.315Z,6.87
2018-09-05T02:24:17.943Z,7.37
2018-09-05T02:26:46.382Z,6.83
2018-09-05T02:29:15.021Z,7.10
2018-09-05T02:31:43.481Z,6.63
2018-09-05T02:34:12.075Z,8.00
2018-09-05T02:36:40.749Z,7.60
2018-09-05T02:39:10.306Z,7.57
2018-09-05T02:41:38.823Z,7.73
2018-09-05T02:44:12.611Z,7.80
2018-09-05T02:46:41.252Z,8.80
2018-09-05T02:49:10.401Z,8.00
2018-09-05T02:51:39.228Z,9.10
2018-09-05T02:54:07.931Z,8.90
2018-09-05T02:56:36.436Z,7.83
2018-09-05T02:59:04.926Z,8.27
2018-09-05T03:01:33.421Z,7.53
2018-09-05T03:04:01.906Z,8.90
2018-09-05T03:06:30.656Z,8.10
2018-09-05T03:08:59.220Z,8.13
2018-09-05T03:11:27.716Z,8.13
2018-09-05T03:13:56.215Z,9.00
2018-09-05T03:16:24.693Z,8.07
2018-09-05T03:18:53.196Z,9.67
2018-09-05T03:21:21.731Z,8.53
2018-09-05T03:23:50.340Z,7.47
2018-09-05T03:26:18.838Z,8.43
2018-09-05T03:28:47.457Z,9.17
2018-09-05T03:31:15.978Z,8.57
2018-09-05T03:33:44.437Z,7.77
2018-09-05T03:36:12.966Z,8.20
2018-09-05T03:38:41.631Z,8.57
2018-09-05T03:41:10.258Z,8.03
2018-09-05T03:43:38.857Z,8.73
2018-09-05T03:46:07.596Z,9.07
2018-09-05T03:48:36.303Z,9.43
2018-09-05T03:51:04.821Z,11.07
2018-09-05T03:53:33.276Z,9.77
2018-09-05T03:56:01.899Z,10.10
2018-09-05T03:58:30.458Z,9.43
2018-09-05T04:00:59.231Z,10.27
2018-09-05T04:03:27.945Z,9.63
2018-09-05T04:05:56.496Z,10.07
2018-09-05T04:08:25.849Z,10.20
2018-09-05T04:10:54.377Z,10.83
2018-09-05T04:13:22.910Z,10.87
2018-09-05T04:15:51.441Z,10.70
2018-09-05T04:18:20.090Z,10.67
2018-09-05T04:20:48.740Z,10.53
2018-09-05T04:23:17.229Z,11.07
2018-09-05T04:25:45.686Z,10.40
2018-09-05T04:28:14.256Z,13.17
2018-09-05T04:30:42.742Z,12.07
2018-09-05T04:33:11.260Z,10.80
2018-09-05T04:35:39.783Z,11.10
2018-09-05T04:38:08.412Z,15.33
2018-09-05T04:40:36.957Z,13.43
2018-09-05T04:43:05.476Z,24.37
2018-09-05T04:45:33.949Z,16.00
2018-09-05T04:48:02.472Z,14.47
2018-09-05T04:50:31.021Z,13.43
2018-09-05T04:52:59.659Z,23.40
2018-09-05T04:55:28.344Z,16.83
2018-09-05T04:57:56.886Z,18.67
2018-09-05T05:00:25.407Z,20.27
2018-09-05T05:02:53.931Z,17.57
2018-09-05T05:05:22.479Z,17.77
2018-09-05T05:07:50.969Z,15.63
2018-09-05T05:10:19.725Z,14.97
2018-09-05T05:12:48.359Z,20.73
2018-09-05T05:15:16.882Z,19.37
2018-09-05T05:17:45.442Z,15.80
2018-09-05T05:20:14.031Z,17.17
2018-09-05T05:22:42.529Z,19.73
2018-09-05T05:25:11.066Z,26.87
2018-09-05T05:27:39.694Z,28.77
2018-09-05T05:30:08.393Z,24.97
2018-09-05T05:32:36.957Z,23.27
2018-09-05T05:35:05.358Z,24.30
2018-09-05T05:37:33.923Z,24.67
2018-09-05T05:40:06.037Z,27.53
2018-09-05T05:42:35.027Z,33.47
2018-09-05T05:45:03.645Z,34.47
2018-09-05T05:47:32.739Z,29.20
2018-09-05T05:50:01.635Z,28.50
2018-09-05T05:52:30.437Z,29.40
2018-09-05T05:54:59.130Z,29.07
2018-09-05T05:57:27.675Z,29.37
2018-09-05T05:59:56.092Z,26.43
2018-09-05T06:02:24.469Z,24.23
2018-09-05T06:04:52.930Z,26.50
2018-09-05T06:07:21.393Z,27.00
2018-09-05T06:09:49.906Z,28.03
2018-09-05T06:12:18.424Z,22.50
2018-09-05T06:14:46.799Z,27.07
2018-09-05T06:17:15.982Z,31.97
2018-09-05T06:19:44.618Z,31.70
2018-09-05T06:22:13.092Z,26.73
2018-09-05T06:24:41.552Z,28.43
2018-09-05T06:27:10.248Z,37.03
2018-09-05T06:29:38.890Z,35.07
2018-09-05T06:32:07.295Z,36.87
2018-09-05T06:34:35.701Z,38.93
2018-09-05T06:37:04.195Z,37.00
2018-09-05T06:39:32.687Z,30.10
2018-09-05T06:42:01.231Z,33.67
2018-09-05T06:44:29.708Z,35.77
2018-09-05T06:46:59.354Z,38.07
2018-09-05T06:49:27.855Z,41.73
2018-09-05T06:51:56.276Z,48.20
2018-09-05T06:54:24.796Z,49.00
2018-09-05T06:56:53.187Z,46.80
2018-09-05T06:59:21.603Z,45.60
2018-09-05T07:01:50.386Z,50.77
2018-09-05T07:04:18.890Z,45.70
2018-09-05T07:06:47.333Z,50.87
2018-09-05T07:09:15.748Z,45.50
2018-09-05T07:11:44.214Z,47.50
2018-09-05T07:14:12.724Z,48.97
2018-09-05T07:16:41.253Z,44.43
2018-09-05T07:19:10.879Z,45.63
2018-09-05T07:21:39.364Z,44.53
2018-09-05T07:24:08.001Z,44.10
2018-09-05T07:26:37.157Z,46.47
2018-09-05T07:29:05.685Z,48.53
2018-09-05T07:31:34.115Z,45.70
2018-09-05T07:34:02.520Z,44.23
2018-09-05T07:36:30.991Z,45.40
2018-09-05T07:38:59.531Z,44.00
2018-09-05T07:41:27.931Z,39.53
2018-09-05T07:43:56.471Z,39.83
2018-09-05T07:46:24.951Z,38.60
2018-09-05T07:48:53.426Z,32.00
2018-09-05T07:51:21.953Z,36.33
2018-09-05T07:53:50.959Z,39.13
2018-09-05T07:56:19.784Z,33.73
2018-09-05T07:58:48.430Z,34.13
2018-09-05T08:01:17.156Z,39.37
2018-09-05T08:03:45.763Z,35.60
2018-09-05T08:06:14.708Z,33.67
2018-09-05T08:08:43.623Z,33.50
2018-09-05T08:11:12.323Z,34.33
2018-09-05T08:13:41.355Z,36.73
2018-09-05T08:16:10.019Z,36.43
2018-09-05T08:18:39.035Z,34.33
2018-09-05T08:21:07.567Z,31.70
2018-09-05T08:23:36.363Z,34.87
2018-09-05T08:26:05.052Z,27.73
2018-09-05T08:28:33.652Z,29.10
2018-09-05T08:31:02.108Z,32.73
2018-09-05T08:33:30.666Z,30.50
2018-09-05T08:35:59.526Z,28.07
2018-09-05T08:38:27.993Z,25.37
2018-09-05T08:40:56.485Z,32.30
2018-09-05T08:43:25.121Z,29.37
2018-09-05T08:45:53.802Z,34.17
2018-09-05T08:48:22.300Z,35.30
2018-09-05T08:50:50.715Z,29.33
2018-09-05T08:53:19.356Z,33.10
2018-09-05T08:55:47.776Z,29.63
2018-09-05T08:58:16.220Z,34.10
2018-09-05T09:00:44.656Z,40.13
2018-09-05T09:03:13.255Z,45.60
2018-09-05T09:05:41.724Z,42.80
2018-09-05T09:08:10.479Z,37.00
2018-09-05T09:10:38.974Z,44.07
2018-09-05T09:13:07.595Z,49.77
2018-09-05T09:15:36.738Z,44.90
2018-09-05T09:18:05.255Z,42.97
2018-09-05T09:20:33.647Z,50.23
2018-09-05T09:23:02.149Z,45.07
2018-09-05T09:25:30.757Z,45.17
2018-09-05T09:27:59.296Z,42.60
2018-09-05T09:30:27.727Z,42.30
2018-09-05T09:32:56.180Z,49.13
2018-09-05T09:35:24.718Z,43.47
2018-09-05T09:37:53.212Z,45.47
2018-09-05T09:40:21.628Z,45.50
2018-09-05T09:42:50.279Z,48.50
2018-09-05T09:45:19.096Z,49.33
2018-09-05T09:47:47.515Z,50.43
2018-09-05T09:50:15.956Z,61.10
2018-09-05T09:52:44.421Z,61.10
2018-09-05T09:55:12.916Z,58.47
2018-09-05T09:57:41.633Z,60.37
2018-09-05T10:00:11.055Z,56.70
2018-09-05T10:02:44.741Z,56.90
2018-09-05T10:05:18.567Z,65.40
2018-09-05T10:07:52.434Z,67.67
2018-09-05T10:10:26.382Z,67.60
2018-09-05T10:12:59.982Z,61.10
2018-09-05T10:15:33.752Z,67.73
2018-09-05T10:18:07.603Z,62.83
2018-09-05T10:20:36.368Z,61.90
2018-09-05T10:23:04.904Z,62.20
2018-09-05T10:25:33.477Z,61.03
2018-09-05T10:28:02.029Z,62.63
2018-09-05T10:30:30.650Z,61.30
2018-09-05T10:32:59.080Z,65.17
2018-09-05T10:35:27.544Z,58.03
2018-09-05T10:37:55.963Z,59.70
2018-09-05T10:40:24.394Z,65.50
2018-09-05T10:42:52.844Z,66.07
2018-09-05T10:45:21.319Z,60.17
2018-09-05T10:47:49.883Z,63.27
2018-09-05T10:50:18.383Z,65.00
2018-09-05T10:52:46.888Z,62.27
2018-09-05T10:55:15.444Z,60.47
2018-09-05T10:57:43.946Z,55.53
2018-09-05T11:00:12.503Z,48.80
2018-09-05T11:02:42.577Z,52.47
2018-09-05T11:05:11.769Z,51.53
2018-09-05T11:07:40.937Z,49.57
2018-09-05T11:10:09.560Z,48.43
2018-09-05T11:12:38.260Z,50.93
2018-09-05T11:15:07.117Z,54.63
2018-09-05T11:17:36.055Z,51.00
2018-09-05T11:20:04.882Z,52.73
2018-09-05T11:22:34.259Z,52.20
2018-09-05T11:25:04.063Z,55.37
2018-09-05T11:28:10.636Z,52.93
2018-09-05T11:30:41.038Z,50.40
2018-09-05T11:33:09.467Z,50.47
2018-09-05T11:35:37.965Z,50.80
2018-09-05T11:38:06.455Z,51.07
2018-09-05T11:40:34.907Z,47.70
2018-09-05T11:43:03.513Z,48.60
2018-09-05T11:45:31.924Z,46.20
2018-09-05T11:48:00.383Z,44.23
2018-09-05T11:50:28.797Z,42.47
2018-09-05T11:52:57.237Z,44.70
2018-09-05T11:55:25.728Z,41.20
2018-09-05T11:57:54.188Z,43.03
2018-09-05T12:00:22.599Z,40.20
2018-09-05T12:02:51.011Z,38.37
2018-09-05T12:05:19.704Z,38.67
2018-09-05T12:07:48.167Z,35.80
2018-09-05T12:10:16.629Z,34.73
2018-09-05T12:12:45.094Z,31.83
2018-09-05T12:15:13.616Z,30.83
2018-09-05T12:17:42.057Z,30.30
2018-09-05T12:20:10.712Z,28.33
2018-09-05T12:22:39.125Z,27.30
2018-09-05T12:25:07.614Z,27.23
2018-09-05T12:27:36.092Z,24.93
2018-09-05T12:30:04.684Z,24.63
2018-09-05T12:32:33.078Z,23.73
2018-09-05T12:35:01.505Z,24.00
2018-09-05T12:37:29.892Z,24.10
2018-09-05T12:39:58.339Z,21.83
2018-09-05T12:42:26.796Z,20.70
2018-09-05T12:44:55.201Z,20.23
2018-09-05T12:47:23.695Z,23.30
2018-09-05T12:49:52.243Z,20.57
2018-09-05T12:52:20.643Z,19.50
2018-09-05T12:54:49.035Z,18.07
2018-09-05T12:57:17.483Z,19.17
2018-09-05T12:59:45.893Z,18.63
2018-09-05T13:02:14.302Z,21.03
2018-09-05T13:04:42.703Z,18.33
2018-09-05T13:07:11.119Z,17.90
2018-09-05T13:09:39.506Z,18.13
2018-09-05T13:12:08.118Z,18.33
2018-09-05T13:14:36.509Z,18.37
2018-09-05T13:17:04.947Z,19.33
2018-09-05T13:19:33.528Z,21.13
2018-09-05T13:22:03.006Z,19.90
2018-09-05T13:24:31.619Z,20.43
2018-09-05T13:27:00.062Z,21.13
2018-09-05T13:29:28.479Z,21.50
2018-09-05T13:31:56.892Z,22.17
2018-09-05T13:34:25.357Z,22.03
2018-09-05T13:36:53.815Z,25.30
2018-09-05T13:39:22.228Z,23.50
2018-09-05T13:41:50.693Z,23.07
2018-09-05T13:44:19.123Z,21.80
2018-09-05T13:46:47.621Z,22.70
2018-09-05T13:49:16.807Z,21.77
2018-09-05T13:51:49.471Z,21.63
2018-09-05T13:54:17.984Z,22.80
2018-09-05T13:56:46.419Z,23.00
2018-09-05T13:59:14.976Z,22.90
2018-09-05T14:01:43.597Z,24.17
2018-09-05T14:04:12.071Z,24.00
2018-09-05T14:06:40.481Z,24.27
2018-09-05T14:09:10.509Z,23.93
2018-09-05T14:11:38.907Z,24.33
2018-09-05T14:14:07.682Z,23.00
2018-09-05T14:16:36.478Z,23.47
2018-09-05T14:19:05.155Z,22.73
2018-09-05T14:21:33.573Z,22.30
2018-09-05T14:24:02.030Z,20.00
2018-09-05T14:26:30.430Z,21.23
2018-09-05T14:28:58.841Z,21.87
2018-09-05T14:31:27.387Z,24.30
2018-09-05T14:33:55.833Z,20.70
2018-09-05T14:36:24.435Z,22.60
2018-09-05T14:38:52.843Z,19.90
2018-09-05T14:41:21.270Z,20.23
2018-09-05T14:43:49.724Z,20.90
2018-09-05T14:46:18.148Z,20.40
2018-09-05T14:48:46.605Z,20.43
2018-09-05T14:51:15.023Z,19.07
2018-09-05T14:53:43.624Z,19.73
2018-09-05T14:56:12.056Z,19.83
2018-09-05T14:58:40.508Z,19.60
2018-09-05T15:01:08.926Z,19.77
2018-09-05T15:03:37.341Z,20.60
2018-09-05T15:06:05.738Z,25.67
2018-09-05T15:08:34.147Z,28.37
2018-09-05T15:11:02.547Z,35.03
2018-09-05T15:13:30.994Z,31.33
2018-09-05T15:15:59.479Z,35.07
2018-09-05T15:18:27.891Z,37.13
2018-09-05T15:20:56.441Z,37.47
2018-09-05T15:23:24.875Z,38.57
2018-09-05T15:25:53.327Z,47.93
2018-09-05T15:28:21.740Z,50.17
2018-09-05T15:30:50.231Z,71.93
2018-09-05T15:33:18.676Z,103.13
2018-09-05T15:35:47.108Z,71.87
2018-09-05T15:38:15.547Z,71.27
2018-09-05T15:40:44.046Z,68.20
2018-09-05T15:43:12.398Z,69.10
2018-09-05T15:45:40.892Z,67.33
2018-09-05T15:48:09.316Z,63.33
2018-09-05T15:50:37.753Z,60.70
2018-09-05T15:53:06.426Z,58.07
2018-09-05T15:55:34.855Z,57.00
2018-09-05T15:58:03.352Z,53.93
2018-09-05T16:00:31.855Z,52.47
2018-09-05T16:03:00.319Z,50.27
2018-09-05T16:05:28.703Z,49.43
2018-09-05T16:07:57.124Z,48.70
2018-09-05T16:10:25.571Z,45.57
2018-09-05T16:12:53.981Z,45.23
2018-09-05T16:15:22.491Z,43.07
2018-09-05T16:17:50.860Z,41.20
2018-09-05T16:20:19.289Z,41.33
2018-09-05T16:22:47.728Z,39.20
2018-09-05T16:25:16.209Z,39.67
2018-09-05T16:27:44.610Z,39.70
2018-09-05T16:30:13.088Z,37.27
2018-09-05T16:32:41.519Z,37.23
2018-09-05T16:35:09.964Z,36.63
2018-09-05T16:37:38.409Z,33.83
2018-09-05T16:40:06.806Z,35.33
2018-09-05T16:42:35.193Z,35.63
2018-09-05T16:45:03.645Z,33.87
2018-09-05T16:47:32.029Z,33.40
2018-09-05T16:50:00.511Z,33.10
2018-09-05T16:52:35.472Z,33.03
2018-09-05T16:55:03.880Z,32.77
2018-09-05T16:57:32.324Z,32.10
2018-09-05T17:00:00.779Z,30.83
2018-09-05T17:02:29.184Z,30.97
2018-09-05T17:04:57.575Z,29.40
2018-09-05T17:07:25.996Z,29.37
2018-09-05T17:09:54.521Z,29.77
2018-09-05T17:12:22.847Z,29.23
2018-09-05T17:14:51.262Z,27.97
2018-09-05T17:17:19.659Z,29.07
2018-09-05T17:19:48.023Z,28.43
2018-09-05T17:22:16.438Z,28.67
2018-09-05T17:24:44.870Z,27.00
2018-09-05T17:27:13.272Z,27.63
2018-09-05T17:29:41.677Z,26.03
2018-09-05T17:32:10.034Z,25.83
2018-09-05T17:34:38.379Z,23.97
2018-09-05T17:37:06.878Z,24.20
2018-09-05T17:39:35.212Z,23.20
2018-09-05T17:42:03.573Z,23.90
2018-09-05T17:44:31.940Z,21.23
2018-09-05T17:47:00.387Z,21.20
2018-09-05T17:49:28.702Z,20.10
2018-09-05T17:51:57.051Z,20.77
2018-09-05T17:54:25.603Z,20.83
2018-09-05T17:56:53.948Z,20.97
2018-09-05T17:59:22.367Z,22.07
2018-09-05T18:01:50.732Z,20.90
2018-09-05T18:04:19.093Z,18.03
2018-09-05T18:06:47.461Z,20.03
2018-09-05T18:09:15.784Z,19.57
2018-09-05T18:11:44.132Z,21.27
2018-09-05T18:14:13.283Z,19.67
2018-09-05T18:16:41.628Z,18.83
2018-09-05T18:19:09.981Z,19.37
2018-09-05T18:21:38.672Z,18.53
2018-09-05T18:24:06.994Z,18.80
2018-09-05T18:26:35.321Z,18.73
2018-09-05T18:29:03.674Z,18.23
2018-09-05T18:31:32.004Z,22.77
2018-09-05T18:34:00.340Z,17.07
2018-09-05T18:36:28.704Z,17.10
2018-09-05T18:38:57.104Z,16.70
2018-09-05T18:41:25.470Z,15.77
2018-09-05T18:43:53.900Z,14.63
2018-09-05T18:46:22.239Z,15.27
2018-09-05T18:48:50.619Z,14.67
2018-09-05T18:51:18.968Z,13.97
2018-09-05T18:53:47.316Z,14.93
2018-09-05T18:56:15.717Z,14.17
2018-09-05T18:58:44.083Z,13.70
2018-09-05T19:01:12.411Z,14.03
2018-09-05T19:03:40.860Z,14.20
2018-09-05T19:06:09.308Z,13.93
2018-09-05T19:08:37.719Z,15.40
2018-09-05T19:11:06.100Z,13.40
2018-09-05T19:13:34.504Z,14.20
2018-09-05T19:16:02.893Z,15.40
2018-09-05T19:18:31.333Z,15.37
2018-09-05T19:20:59.816Z,15.03
2018-09-05T19:23:28.236Z,14.37
2018-09-05T19:25:56.628Z,14.17
2018-09-05T19:28:25.312Z,14.90
2018-09-05T19:30:54.848Z,14.03
2018-09-05T19:33:23.383Z,14.00
2018-09-05T19:35:51.831Z,13.57
2018-09-05T19:38:20.251Z,14.33
2018-09-05T19:40:48.703Z,13.17
2018-09-05T19:43:17.114Z,13.47
2018-09-05T19:45:45.527Z,13.33
2018-09-05T19:48:13.983Z,13.70
2018-09-05T19:50:42.416Z,13.13
2018-09-05T19:53:10.828Z,12.53
2018-09-05T19:55:39.240Z,13.73
2018-09-05T19:58:07.635Z,13.90
2018-09-05T20:00:36.067Z,12.83
2018-09-05T20:03:04.473Z,13.10
2018-09-05T20:05:32.855Z,12.63
2018-09-05T20:08:01.255Z,12.83
2018-09-05T20:10:29.744Z,12.90
2018-09-05T20:12:58.171Z,12.97
2018-09-05T20:15:26.601Z,12.27
2018-09-05T20:17:55.104Z,13.43
2018-09-05T20:20:23.563Z,13.23
2018-09-05T20:22:51.947Z,11.83
2018-09-05T20:25:20.345Z,13.20
2018-09-05T20:27:48.765Z,13.83
2018-09-05T20:30:17.145Z,13.20
2018-09-05T20:32:45.574Z,13.37
2018-09-05T20:35:13.992Z,13.13
2018-09-05T20:37:42.400Z,12.80
2018-09-05T20:40:10.803Z,12.20
2018-09-05T20:42:39.230Z,13.20
2018-09-05T20:45:07.621Z,14.30
2018-09-05T20:47:36.391Z,12.30
2018-09-05T20:50:04.983Z,12.87
2018-09-05T20:52:33.392Z,13.70
2018-09-05T20:55:01.791Z,12.80
2018-09-05T20:57:30.195Z,12.13
2018-09-05T20:59:58.629Z,12.83
2018-09-05T21:02:27.743Z,12.10
2018-09-05T21:04:56.187Z,12.47
2018-09-05T21:07:24.655Z,13.13
2018-09-05T21:09:53.073Z,11.87
2018-09-05T21:12:21.476Z,12.33
2018-09-05T21:14:49.887Z,12.60
2018-09-05T21:17:18.437Z,12.10
2018-09-05T21:19:46.991Z,13.90
2018-09-05T21:22:16.573Z,13.50
2018-09-05T21:24:45.200Z,12.23
2018-09-05T21:27:13.628Z,12.67
2018-09-05T21:29:42.024Z,12.93
2018-09-05T21:32:10.410Z,12.33
2018-09-05T21:34:39.142Z,13.27
2018-09-05T21:37:08.010Z,12.97
2018-09-05T21:39:36.395Z,11.73
2018-09-05T21:42:04.823Z,11.50
2018-09-05T21:44:33.459Z,12.07
2018-09-05T21:47:02.157Z,11.67
2018-09-05T21:49:30.571Z,11.63
2018-09-05T21:51:59.019Z,10.77
2018-09-05T21:54:27.421Z,12.43
2018-09-05T21:56:55.857Z,11.30
2018-09-05T21:59:24.308Z,12.03
2018-09-05T22:01:52.718Z,11.60
2018-09-05T22:04:21.183Z,11.57
2018-09-05T22:06:49.922Z,11.23
2018-09-05T22:09:18.322Z,12.90
2018-09-05T22:11:46.788Z,11.70
2018-09-05T22:14:15.201Z,10.87
2018-09-05T22:16:43.625Z,10.97
2018-09-05T22:19:12.053Z,10.93
2018-09-05T22:21:40.454Z,11.43
2018-09-05T22:24:09.022Z,10.73
2018-09-05T22:26:37.419Z,10.00
2018-09-05T22:29:05.838Z,9.67
2018-09-05T22:31:34.296Z,11.00
2018-09-05T22:34:02.711Z,10.50
2018-09-05T22:36:31.084Z,9.90
2018-09-05T22:38:59.476Z,10.70
2018-09-05T22:41:27.879Z,10.40
2018-09-05T22:44:07.495Z,10.43
2018-09-05T22:46:47.039Z,10.47
2018-09-05T22:51:36.255Z,10.93
2018-09-05T22:55:39.071Z,10.87
2018-09-05T22:58:52.339Z,11.27
2018-09-05T23:01:36.747Z,10.93
2018-09-05T23:04:21.343Z,11.70
2018-09-05T23:09:03.016Z,11.33
2018-09-05T23:14:11.839Z,11.13
2018-09-05T23:21:00.667Z,10.57
2018-09-05T23:24:04.267Z,10.03
2018-09-05T23:26:32.671Z,11.30
2018-09-05T23:29:01.072Z,10.47
2018-09-05T23:31:29.476Z,10.87
2018-09-05T23:33:57.912Z,10.60
2018-09-05T23:36:26.573Z,12.07
2018-09-05T23:38:54.985Z,10.90
2018-09-05T23:41:23.393Z,11.90
2018-09-05T23:43:51.768Z,10.80
2018-09-05T23:46:20.157Z,11.00
2018-09-05T23:48:48.583Z,11.27
2018-09-05T23:51:16.968Z,10.17
2018-09-05T23:53:45.346Z,10.87
2018-09-05T23:56:13.765Z,11.10
2018-09-05T23:58:42.152Z,11.23
